sensor_id;sensor_type;location;lat;lon;timestamp;temperature;humidity
1381;DHT22;684;48.342;10.096;2023-03-14T00:01:30;11.80;37.70
1381;DHT22;684;48.342;10.096;2023-03-14T00:03:58;11.80;37.80
1381;DHT22;684;48.342;10.096;2023-03-14T00:06:26;11.80;37.80
1381;DHT22;684;48.342;10.096;2023-03-14T00:08:53;11.80;37.70
1381;DHT22;684;48.342;10.096;2023-03-14T00:11:21;11.80;37.70
1381;DHT22;684;48.342;10.096;2023-03-14T00:13:48;11.80;37.80
1381;DHT22;684;48.342;10.096;2023-03-14T00:16:15;11.80;38.00
1381;DHT22;684;48.342;10.096;2023-03-14T00:18:42;11.80;37.90
1381;DHT22;684;48.342;10.096;2023-03-14T00:21:11;11.70;38.10
1381;DHT22;684;48.342;10.096;2023-03-14T00:23:39;11.70;37.80
1381;DHT22;684;48.342;10.096;2023-03-14T00:26:08;11.60;37.10
1381;DHT22;684;48.342;10.096;2023-03-14T00:28:35;11.60;37.50
1381;DHT22;684;48.342;10.096;2023-03-14T00:31:03;11.60;36.80
1381;DHT22;684;48.342;10.096;2023-03-14T00:33:29;11.60;36.80
1381;DHT22;684;48.342;10.096;2023-03-14T00:35:57;11.60;36.80
1381;DHT22;684;48.342;10.096;2023-03-14T00:38:25;11.50;37.00
1381;DHT22;684;48.342;10.096;2023-03-14T00:40:53;11.50;37.10
1381;DHT22;684;48.342;10.096;2023-03-14T00:43:20;11.40;37.10
1381;DHT22;684;48.342;10.096;2023-03-14T00:45:48;11.30;37.40
1381;DHT22;684;48.342;10.096;2023-03-14T00:48:15;11.20;37.60
1381;DHT22;684;48.342;10.096;2023-03-14T00:50:41;11.20;37.50
1381;DHT22;684;48.342;10.096;2023-03-14T00:53:08;11.20;37.50
1381;DHT22;684;48.342;10.096;2023-03-14T00:55:37;11.00;37.80
1381;DHT22;684;48.342;10.096;2023-03-14T00:58:04;11.00;37.60
1381;DHT22;684;48.342;10.096;2023-03-14T01:00:32;11.00;37.50
1381;DHT22;684;48.342;10.096;2023-03-14T01:02:58;10.90;37.50
1381;DHT22;684;48.342;10.096;2023-03-14T01:05:25;10.90;38.60
1381;DHT22;684;48.342;10.096;2023-03-14T01:07:52;10.80;37.80
1381;DHT22;684;48.342;10.096;2023-03-14T01:10:19;10.80;37.60
1381;DHT22;684;48.342;10.096;2023-03-14T01:12:47;10.90;37.10
1381;DHT22;684;48.342;10.096;2023-03-14T01:15:14;10.80;37.10
1381;DHT22;684;48.342;10.096;2023-03-14T01:17:41;10.70;37.40
1381;DHT22;684;48.342;10.096;2023-03-14T01:20:10;10.70;37.80
1381;DHT22;684;48.342;10.096;2023-03-14T01:22:38;10.60;38.00
1381;DHT22;684;48.342;10.096;2023-03-14T01:25:06;10.60;38.10
1381;DHT22;684;48.342;10.096;2023-03-14T01:27:33;10.60;38.30
1381;DHT22;684;48.342;10.096;2023-03-14T01:30:02;10.50;38.70
1381;DHT22;684;48.342;10.096;2023-03-14T01:32:29;10.50;39.30
1381;DHT22;684;48.342;10.096;2023-03-14T01:34:56;10.50;39.70
1381;DHT22;684;48.342;10.096;2023-03-14T01:37:23;10.50;39.90
1381;DHT22;684;48.342;10.096;2023-03-14T01:39:49;10.50;39.80
1381;DHT22;684;48.342;10.096;2023-03-14T01:42:16;10.40;40.00
1381;DHT22;684;48.342;10.096;2023-03-14T01:44:51;10.40;39.80
1381;DHT22;684;48.342;10.096;2023-03-14T01:47:20;10.40;39.40
1381;DHT22;684;48.342;10.096;2023-03-14T01:49:50;10.40;39.30
1381;DHT22;684;48.342;10.096;2023-03-14T01:52:21;10.40;39.10
1381;DHT22;684;48.342;10.096;2023-03-14T01:54:51;10.40;39.00
1381;DHT22;684;48.342;10.096;2023-03-14T01:57:22;10.40;38.60
1381;DHT22;684;48.342;10.096;2023-03-14T01:59:54;10.40;38.60
1381;DHT22;684;48.342;10.096;2023-03-14T02:02:23;10.40;38.40
1381;DHT22;684;48.342;10.096;2023-03-14T02:04:52;10.40;38.30
1381;DHT22;684;48.342;10.096;2023-03-14T02:07:22;10.40;37.80
1381;DHT22;684;48.342;10.096;2023-03-14T02:09:50;10.40;37.70
1381;DHT22;684;48.342;10.096;2023-03-14T02:12:19;10.30;38.00
1381;DHT22;684;48.342;10.096;2023-03-14T02:14:46;10.40;37.90
1381;DHT22;684;48.342;10.096;2023-03-14T02:17:15;10.30;37.70
1381;DHT22;684;48.342;10.096;2023-03-14T02:20:15;10.30;37.70
1381;DHT22;684;48.342;10.096;2023-03-14T02:22:47;10.30;37.80
1381;DHT22;684;48.342;10.096;2023-03-14T02:25:19;10.30;37.90
1381;DHT22;684;48.342;10.096;2023-03-14T02:27:49;10.30;37.80
1381;DHT22;684;48.342;10.096;2023-03-14T02:30:18;10.30;37.80
1381;DHT22;684;48.342;10.096;2023-03-14T02:32:47;10.30;37.70
1381;DHT22;684;48.342;10.096;2023-03-14T02:35:18;10.20;37.50
1381;DHT22;684;48.342;10.096;2023-03-14T02:37:49;10.30;37.70
1381;DHT22;684;48.342;10.096;2023-03-14T02:40:18;10.20;37.70
1381;DHT22;684;48.342;10.096;2023-03-14T02:42:45;10.20;38.00
1381;DHT22;684;48.342;10.096;2023-03-14T02:45:45;10.20;38.00
1381;DHT22;684;48.342;10.096;2023-03-14T02:48:15;10.20;37.90
1381;DHT22;684;48.342;10.096;2023-03-14T02:50:44;10.20;37.70
1381;DHT22;684;48.342;10.096;2023-03-14T02:53:12;10.20;37.90
1381;DHT22;684;48.342;10.096;2023-03-14T02:55:40;10.20;38.00
1381;DHT22;684;48.342;10.096;2023-03-14T02:58:10;10.20;38.20
1381;DHT22;684;48.342;10.096;2023-03-14T03:00:37;10.20;38.10
1381;DHT22;684;48.342;10.096;2023-03-14T03:03:05;10.20;38.20
1381;DHT22;684;48.342;10.096;2023-03-14T03:05:32;10.20;38.20
1381;DHT22;684;48.342;10.096;2023-03-14T03:07:59;10.20;38.40
1381;DHT22;684;48.342;10.096;2023-03-14T03:10:26;10.20;38.40
1381;DHT22;684;48.342;10.096;2023-03-14T03:12:53;10.10;38.30
1381;DHT22;684;48.342;10.096;2023-03-14T03:15:20;10.10;38.30
1381;DHT22;684;48.342;10.096;2023-03-14T03:17:47;10.10;38.30
1381;DHT22;684;48.342;10.096;2023-03-14T03:20:15;10.10;38.40
1381;DHT22;684;48.342;10.096;2023-03-14T03:22:42;10.10;38.20
1381;DHT22;684;48.342;10.096;2023-03-14T03:25:09;10.10;38.20
1381;DHT22;684;48.342;10.096;2023-03-14T03:27:37;10.20;37.90
1381;DHT22;684;48.342;10.096;2023-03-14T03:30:06;10.10;38.10
1381;DHT22;684;48.342;10.096;2023-03-14T03:32:33;10.10;38.20
1381;DHT22;684;48.342;10.096;2023-03-14T03:35:01;10.10;38.30
1381;DHT22;684;48.342;10.096;2023-03-14T03:37:30;10.00;38.30
1381;DHT22;684;48.342;10.096;2023-03-14T03:39:56;10.00;38.10
1381;DHT22;684;48.342;10.096;2023-03-14T03:42:23;10.00;38.10
1381;DHT22;684;48.342;10.096;2023-03-14T03:44:50;9.90;38.20
1381;DHT22;684;48.342;10.096;2023-03-14T03:47:16;10.00;38.00
1381;DHT22;684;48.342;10.096;2023-03-14T03:49:43;9.90;38.10
1381;DHT22;684;48.342;10.096;2023-03-14T03:52:10;9.90;38.20
1381;DHT22;684;48.342;10.096;2023-03-14T03:54:38;10.00;38.00
1381;DHT22;684;48.342;10.096;2023-03-14T03:57:05;9.90;37.90
1381;DHT22;684;48.342;10.096;2023-03-14T03:59:32;9.90;38.10
1381;DHT22;684;48.342;10.096;2023-03-14T04:01:58;9.90;37.80
1381;DHT22;684;48.342;10.096;2023-03-14T04:04:25;9.80;38.50
1381;DHT22;684;48.342;10.096;2023-03-14T04:06:52;9.80;38.00
1381;DHT22;684;48.342;10.096;2023-03-14T04:09:19;9.80;38.00
1381;DHT22;684;48.342;10.096;2023-03-14T04:11:47;9.80;37.90
1381;DHT22;684;48.342;10.096;2023-03-14T04:14:14;9.80;38.00
1381;DHT22;684;48.342;10.096;2023-03-14T04:16:40;9.80;37.80
1381;DHT22;684;48.342;10.096;2023-03-14T04:19:07;9.80;37.70
1381;DHT22;684;48.342;10.096;2023-03-14T04:21:34;9.80;37.80
1381;DHT22;684;48.342;10.096;2023-03-14T04:24:00;9.80;37.70
1381;DHT22;684;48.342;10.096;2023-03-14T04:26:27;9.80;37.80
1381;DHT22;684;48.342;10.096;2023-03-14T04:28:55;9.80;37.60
1381;DHT22;684;48.342;10.096;2023-03-14T04:31:22;9.70;37.60
1381;DHT22;684;48.342;10.096;2023-03-14T04:33:49;9.70;37.50
1381;DHT22;684;48.342;10.096;2023-03-14T04:36:16;9.70;37.40
1381;DHT22;684;48.342;10.096;2023-03-14T04:38:42;9.60;37.40
1381;DHT22;684;48.342;10.096;2023-03-14T04:41:09;9.60;37.40
1381;DHT22;684;48.342;10.096;2023-03-14T04:43:36;9.60;37.50
1381;DHT22;684;48.342;10.096;2023-03-14T04:46:05;9.60;37.50
1381;DHT22;684;48.342;10.096;2023-03-14T04:48:31;9.60;37.10
1381;DHT22;684;48.342;10.096;2023-03-14T04:50:58;9.50;37.20
1381;DHT22;684;48.342;10.096;2023-03-14T04:53:25;9.50;37.10
1381;DHT22;684;48.342;10.096;2023-03-14T04:55:53;9.60;36.90
1381;DHT22;684;48.342;10.096;2023-03-14T04:58:21;9.50;36.50
1381;DHT22;684;48.342;10.096;2023-03-14T05:03:26;9.50;36.50
1381;DHT22;684;48.342;10.096;2023-03-14T05:05:53;9.50;36.30
1381;DHT22;684;48.342;10.096;2023-03-14T05:08:20;9.50;36.00
1381;DHT22;684;48.342;10.096;2023-03-14T05:10:52;9.50;35.80
1381;DHT22;684;48.342;10.096;2023-03-14T05:13:19;9.50;35.60
1381;DHT22;684;48.342;10.096;2023-03-14T05:15:45;9.50;35.30
1381;DHT22;684;48.342;10.096;2023-03-14T05:18:12;9.50;35.20
1381;DHT22;684;48.342;10.096;2023-03-14T05:20:40;9.50;34.80
1381;DHT22;684;48.342;10.096;2023-03-14T05:23:08;9.50;34.50
1381;DHT22;684;48.342;10.096;2023-03-14T05:25:35;9.50;34.60
1381;DHT22;684;48.342;10.096;2023-03-14T05:28:02;9.50;34.60
1381;DHT22;684;48.342;10.096;2023-03-14T05:30:29;9.50;34.30
1381;DHT22;684;48.342;10.096;2023-03-14T05:32:56;9.50;34.10
1381;DHT22;684;48.342;10.096;2023-03-14T05:35:23;9.50;34.10
1381;DHT22;684;48.342;10.096;2023-03-14T05:37:51;9.50;34.20
1381;DHT22;684;48.342;10.096;2023-03-14T05:40:18;9.40;34.10
1381;DHT22;684;48.342;10.096;2023-03-14T05:42:44;9.40;34.00
1381;DHT22;684;48.342;10.096;2023-03-14T05:45:11;9.50;34.00
1381;DHT22;684;48.342;10.096;2023-03-14T05:47:38;9.50;33.90
1381;DHT22;684;48.342;10.096;2023-03-14T05:50:05;9.40;33.90
1381;DHT22;684;48.342;10.096;2023-03-14T05:52:32;9.40;33.90
1381;DHT22;684;48.342;10.096;2023-03-14T05:55:00;9.50;33.70
1381;DHT22;684;48.342;10.096;2023-03-14T05:57:26;9.50;33.70
1381;DHT22;684;48.342;10.096;2023-03-14T05:59:53;9.50;33.90
1381;DHT22;684;48.342;10.096;2023-03-14T06:02:20;9.50;33.90
1381;DHT22;684;48.342;10.096;2023-03-14T06:04:46;9.50;33.70
1381;DHT22;684;48.342;10.096;2023-03-14T06:07:13;9.50;33.90
1381;DHT22;684;48.342;10.096;2023-03-14T06:09:40;9.50;33.90
1381;DHT22;684;48.342;10.096;2023-03-14T06:12:08;9.50;33.80
1381;DHT22;684;48.342;10.096;2023-03-14T06:14:35;9.50;34.00
1381;DHT22;684;48.342;10.096;2023-03-14T06:17:01;9.50;34.00
1381;DHT22;684;48.342;10.096;2023-03-14T06:19:28;9.60;33.70
1381;DHT22;684;48.342;10.096;2023-03-14T06:21:55;9.60;33.50
1381;DHT22;684;48.342;10.096;2023-03-14T06:24:21;9.60;33.50
1381;DHT22;684;48.342;10.096;2023-03-14T06:26:48;9.60;33.10
1381;DHT22;684;48.342;10.096;2023-03-14T06:29:16;9.60;33.10
1381;DHT22;684;48.342;10.096;2023-03-14T06:31:43;9.60;33.00
1381;DHT22;684;48.342;10.096;2023-03-14T07:18:11;10.10;31.70
1381;DHT22;684;48.342;10.096;2023-03-14T07:20:38;10.20;31.30
1381;DHT22;684;48.342;10.096;2023-03-14T07:23:05;10.20;31.30
1381;DHT22;684;48.342;10.096;2023-03-14T07:25:32;10.30;30.90
1381;DHT22;684;48.342;10.096;2023-03-14T07:27:58;10.30;30.70
1381;DHT22;684;48.342;10.096;2023-03-14T07:30:25;10.50;30.30
1381;DHT22;684;48.342;10.096;2023-03-14T07:32:52;10.60;30.00
1381;DHT22;684;48.342;10.096;2023-03-14T07:35:20;10.70;29.80
1381;DHT22;684;48.342;10.096;2023-03-14T07:37:47;11.00;29.10
1381;DHT22;684;48.342;10.096;2023-03-14T07:40:14;11.10;28.70
1381;DHT22;684;48.342;10.096;2023-03-14T07:42:41;11.30;27.90
1381;DHT22;684;48.342;10.096;2023-03-14T07:45:09;11.40;27.40
1381;DHT22;684;48.342;10.096;2023-03-14T07:47:36;11.60;26.70
1381;DHT22;684;48.342;10.096;2023-03-14T07:50:04;11.80;26.60
1381;DHT22;684;48.342;10.096;2023-03-14T07:52:32;12.10;25.80
1381;DHT22;684;48.342;10.096;2023-03-14T09:57:08;23.80;1.00
1381;DHT22;684;48.342;10.096;2023-03-14T09:59:38;23.20;1.00
1381;DHT22;684;48.342;10.096;2023-03-14T10:02:15;22.70;1.00
1381;DHT22;684;48.342;10.096;2023-03-14T10:04:44;22.50;1.00
1381;DHT22;684;48.342;10.096;2023-03-14T10:07:13;22.30;1.00
1381;DHT22;684;48.342;10.096;2023-03-14T10:09:43;22.00;1.00
1381;DHT22;684;48.342;10.096;2023-03-14T10:12:12;22.30;1.00
1381;DHT22;684;48.342;10.096;2023-03-14T10:14:47;23.50;1.00
1381;DHT22;684;48.342;10.096;2023-03-14T10:17:15;23.20;1.00
1381;DHT22;684;48.342;10.096;2023-03-14T10:19:53;22.20;1.00
1381;DHT22;684;48.342;10.096;2023-03-14T10:22:22;21.10;1.80
1381;DHT22;684;48.342;10.096;2023-03-14T10:24:53;20.40;2.60
1381;DHT22;684;48.342;10.096;2023-03-14T10:27:28;19.60;3.70
1381;DHT22;684;48.342;10.096;2023-03-14T10:29:56;19.20;4.90
1381;DHT22;684;48.342;10.096;2023-03-14T10:32:29;19.00;5.60
1381;DHT22;684;48.342;10.096;2023-03-14T10:35:07;20.30;5.10
1381;DHT22;684;48.342;10.096;2023-03-14T10:37:35;22.10;2.50
1381;DHT22;684;48.342;10.096;2023-03-14T10:40:03;21.60;1.40
1381;DHT22;684;48.342;10.096;2023-03-14T10:42:38;20.90;2.10
1381;DHT22;684;48.342;10.096;2023-03-14T10:45:28;21.00;3.20
1381;DHT22;684;48.342;10.096;2023-03-14T10:47:58;22.10;1.20
1381;DHT22;684;48.342;10.096;2023-03-14T10:50:28;21.50;1.80
1381;DHT22;684;48.342;10.096;2023-03-14T10:52:59;20.80;2.30
1381;DHT22;684;48.342;10.096;2023-03-14T10:55:40;21.20;3.60
1381;DHT22;684;48.342;10.096;2023-03-14T10:58:22;22.10;2.00
1381;DHT22;684;48.342;10.096;2023-03-14T11:01:00;22.00;1.10
1381;DHT22;684;48.342;10.096;2023-03-14T11:03:32;22.20;1.00
1381;DHT22;684;48.342;10.096;2023-03-14T11:06:04;22.60;1.00
1381;DHT22;684;48.342;10.096;2023-03-14T11:08:39;22.50;1.10
1381;DHT22;684;48.342;10.096;2023-03-14T11:11:16;22.70;1.00
1381;DHT22;684;48.342;10.096;2023-03-14T11:13:54;22.50;1.00
1381;DHT22;684;48.342;10.096;2023-03-14T11:16:28;21.60;1.60
1381;DHT22;684;48.342;10.096;2023-03-14T11:19:17;21.20;2.40
1381;DHT22;684;48.342;10.096;2023-03-14T11:21:51;21.90;2.90
1381;DHT22;684;48.342;10.096;2023-03-14T11:24:47;21.70;2.10
1381;DHT22;684;48.342;10.096;2023-03-14T11:27:18;21.20;2.40
1381;DHT22;684;48.342;10.096;2023-03-14T11:29:54;20.80;3.10
1381;DHT22;684;48.342;10.096;2023-03-14T11:32:35;20.50;3.10
1381;DHT22;684;48.342;10.096;2023-03-14T11:35:08;20.00;4.20
1381;DHT22;684;48.342;10.096;2023-03-14T11:37:45;19.70;4.90
1381;DHT22;684;48.342;10.096;2023-03-14T11:40:16;19.40;4.60
1381;DHT22;684;48.342;10.096;2023-03-14T11:42:47;18.90;4.90
1381;DHT22;684;48.342;10.096;2023-03-14T11:45:22;18.40;5.80
1381;DHT22;684;48.342;10.096;2023-03-14T11:48:05;18.00;7.10
1381;DHT22;684;48.342;10.096;2023-03-14T11:50:35;17.50;7.50
1381;DHT22;684;48.342;10.096;2023-03-14T11:53:06;17.10;8.50
1381;DHT22;684;48.342;10.096;2023-03-14T11:55:37;16.70;9.10
1381;DHT22;684;48.342;10.096;2023-03-14T11:58:13;16.40;9.50
1381;DHT22;684;48.342;10.096;2023-03-14T12:00:43;16.10;10.90
1381;DHT22;684;48.342;10.096;2023-03-14T12:03:17;15.80;11.90
1381;DHT22;684;48.342;10.096;2023-03-14T12:05:54;15.50;12.60
1381;DHT22;684;48.342;10.096;2023-03-14T12:08:42;15.30;13.40
1381;DHT22;684;48.342;10.096;2023-03-14T12:11:20;15.20;14.80
1381;DHT22;684;48.342;10.096;2023-03-14T12:13:49;15.00;15.10
1381;DHT22;684;48.342;10.096;2023-03-14T12:16:36;14.90;14.80
1381;DHT22;684;48.342;10.096;2023-03-14T12:19:22;14.70;15.00
1381;DHT22;684;48.342;10.096;2023-03-14T12:21:53;14.60;15.90
1381;DHT22;684;48.342;10.096;2023-03-14T12:24:24;14.50;16.80
1381;DHT22;684;48.342;10.096;2023-03-14T12:26:54;14.50;17.10
1381;DHT22;684;48.342;10.096;2023-03-14T12:29:21;14.40;17.50
1381;DHT22;684;48.342;10.096;2023-03-14T12:32:07;14.40;18.40
1381;DHT22;684;48.342;10.096;2023-03-14T12:34:34;14.20;18.50
1381;DHT22;684;48.342;10.096;2023-03-14T12:37:29;14.10;18.60
1381;DHT22;684;48.342;10.096;2023-03-14T12:40:13;14.00;19.50
1381;DHT22;684;48.342;10.096;2023-03-14T12:42:50;13.90;19.30
1381;DHT22;684;48.342;10.096;2023-03-14T12:45:24;13.90;19.40
1381;DHT22;684;48.342;10.096;2023-03-14T12:47:56;13.70;20.00
1381;DHT22;684;48.342;10.096;2023-03-14T12:50:34;13.50;20.50
1381;DHT22;684;48.342;10.096;2023-03-14T12:56:19;13.30;22.00
1381;DHT22;684;48.342;10.096;2023-03-14T12:58:54;13.20;22.50
1381;DHT22;684;48.342;10.096;2023-03-14T13:01:23;13.20;21.70
1381;DHT22;684;48.342;10.096;2023-03-14T13:03:52;13.10;21.40
1381;DHT22;684;48.342;10.096;2023-03-14T13:06:47;13.10;22.60
1381;DHT22;684;48.342;10.096;2023-03-14T13:12:27;13.00;21.30
1381;DHT22;684;48.342;10.096;2023-03-14T13:14:59;12.90;21.70
1381;DHT22;684;48.342;10.096;2023-03-14T13:17:31;12.90;21.60
1381;DHT22;684;48.342;10.096;2023-03-14T13:20:02;12.80;21.60
1381;DHT22;684;48.342;10.096;2023-03-14T13:22:33;12.70;22.60
1381;DHT22;684;48.342;10.096;2023-03-14T13:25:06;12.60;23.00
1381;DHT22;684;48.342;10.096;2023-03-14T13:27:34;12.50;23.80
1381;DHT22;684;48.342;10.096;2023-03-14T13:30:13;12.40;24.00
1381;DHT22;684;48.342;10.096;2023-03-14T13:32:43;12.30;24.20
1381;DHT22;684;48.342;10.096;2023-03-14T13:35:21;12.20;25.00
1381;DHT22;684;48.342;10.096;2023-03-14T13:37:57;12.10;24.80
1381;DHT22;684;48.342;10.096;2023-03-14T13:40:26;12.00;26.00
1381;DHT22;684;48.342;10.096;2023-03-14T13:43:04;11.90;27.00
1381;DHT22;684;48.342;10.096;2023-03-14T13:45:31;11.70;23.80
1381;DHT22;684;48.342;10.096;2023-03-14T13:48:09;11.60;22.60
1381;DHT22;684;48.342;10.096;2023-03-14T13:50:37;11.50;22.00
1381;DHT22;684;48.342;10.096;2023-03-14T13:53:04;11.40;21.70
1381;DHT22;684;48.342;10.096;2023-03-14T13:55:31;11.40;22.30
1381;DHT22;684;48.342;10.096;2023-03-14T13:57:57;11.40;22.30
1381;DHT22;684;48.342;10.096;2023-03-14T14:00:26;11.50;21.90
1381;DHT22;684;48.342;10.096;2023-03-14T14:02:54;11.40;21.90
1381;DHT22;684;48.342;10.096;2023-03-14T14:05:22;11.40;21.50
1381;DHT22;684;48.342;10.096;2023-03-14T14:07:50;11.40;22.70
1381;DHT22;684;48.342;10.096;2023-03-14T14:10:18;11.40;22.50
1381;DHT22;684;48.342;10.096;2023-03-14T14:12:47;11.50;22.60
1381;DHT22;684;48.342;10.096;2023-03-14T14:15:19;11.70;22.60
1381;DHT22;684;48.342;10.096;2023-03-14T14:17:49;11.70;22.20
1381;DHT22;684;48.342;10.096;2023-03-14T14:20:22;11.80;21.60
1381;DHT22;684;48.342;10.096;2023-03-14T14:22:52;11.80;18.10
1381;DHT22;684;48.342;10.096;2023-03-14T14:25:19;11.80;17.90
1381;DHT22;684;48.342;10.096;2023-03-14T14:27:48;11.80;17.80
1381;DHT22;684;48.342;10.096;2023-03-14T14:30:28;11.80;16.40
1381;DHT22;684;48.342;10.096;2023-03-14T14:33:12;11.80;17.50
1381;DHT22;684;48.342;10.096;2023-03-14T14:35:51;11.70;16.90
1381;DHT22;684;48.342;10.096;2023-03-14T14:38:19;11.80;17.20
1381;DHT22;684;48.342;10.096;2023-03-14T14:40:49;11.80;17.30
1381;DHT22;684;48.342;10.096;2023-03-14T14:43:19;11.80;17.40
1381;DHT22;684;48.342;10.096;2023-03-14T14:45:49;11.70;17.60
1381;DHT22;684;48.342;10.096;2023-03-14T14:48:20;11.60;17.80
1381;DHT22;684;48.342;10.096;2023-03-14T14:50:56;11.60;16.90
1381;DHT22;684;48.342;10.096;2023-03-14T14:53:29;11.60;16.90
1381;DHT22;684;48.342;10.096;2023-03-14T14:55:58;11.50;16.40
1381;DHT22;684;48.342;10.096;2023-03-14T14:58:27;11.60;15.80
1381;DHT22;684;48.342;10.096;2023-03-14T15:00:57;11.40;15.90
1381;DHT22;684;48.342;10.096;2023-03-14T15:03:27;11.40;15.90
1381;DHT22;684;48.342;10.096;2023-03-14T15:05:55;11.40;15.90
1381;DHT22;684;48.342;10.096;2023-03-14T15:08:24;11.30;15.60
1381;DHT22;684;48.342;10.096;2023-03-14T15:10:52;11.10;16.50
1381;DHT22;684;48.342;10.096;2023-03-14T15:13:18;11.00;17.30
1381;DHT22;684;48.342;10.096;2023-03-14T15:15:45;10.90;17.40
1381;DHT22;684;48.342;10.096;2023-03-14T15:18:14;10.80;17.00
1381;DHT22;684;48.342;10.096;2023-03-14T15:20:42;10.70;17.60
1381;DHT22;684;48.342;10.096;2023-03-14T15:23:12;10.60;17.20
1381;DHT22;684;48.342;10.096;2023-03-14T15:25:41;10.50;17.60
1381;DHT22;684;48.342;10.096;2023-03-14T15:28:14;10.50;17.00
1381;DHT22;684;48.342;10.096;2023-03-14T15:30:42;10.40;16.70
1381;DHT22;684;48.342;10.096;2023-03-14T15:33:09;10.40;16.80
1381;DHT22;684;48.342;10.096;2023-03-14T15:35:36;10.30;16.50
1381;DHT22;684;48.342;10.096;2023-03-14T15:38:04;10.20;16.50
1381;DHT22;684;48.342;10.096;2023-03-14T15:40:31;10.10;15.20
1381;DHT22;684;48.342;10.096;2023-03-14T15:42:59;10.00;14.50
1381;DHT22;684;48.342;10.096;2023-03-14T15:48:01;9.80;15.20
1381;DHT22;684;48.342;10.096;2023-03-14T15:50:28;9.70;14.70
1381;DHT22;684;48.342;10.096;2023-03-14T15:52:56;9.70;15.20
1381;DHT22;684;48.342;10.096;2023-03-14T15:57:50;9.50;15.20
1381;DHT22;684;48.342;10.096;2023-03-14T16:00:20;9.50;14.60
1381;DHT22;684;48.342;10.096;2023-03-14T16:02:47;9.40;14.70
1381;DHT22;684;48.342;10.096;2023-03-14T16:05:15;9.30;14.80
1381;DHT22;684;48.342;10.096;2023-03-14T16:07:43;9.30;15.30
1381;DHT22;684;48.342;10.096;2023-03-14T16:10:11;9.20;14.40
1381;DHT22;684;48.342;10.096;2023-03-14T16:12:38;9.10;14.60
1381;DHT22;684;48.342;10.096;2023-03-14T16:15:07;9.10;14.60
1381;DHT22;684;48.342;10.096;2023-03-14T16:17:35;9.20;13.30
1381;DHT22;684;48.342;10.096;2023-03-14T16:20:03;9.20;14.00
1381;DHT22;684;48.342;10.096;2023-03-14T16:22:30;9.20;14.20
1381;DHT22;684;48.342;10.096;2023-03-14T16:25:00;9.20;14.30
1381;DHT22;684;48.342;10.096;2023-03-14T16:27:27;9.20;13.40
1381;DHT22;684;48.342;10.096;2023-03-14T16:29:55;9.20;14.00
1381;DHT22;684;48.342;10.096;2023-03-14T16:32:21;9.20;13.70
1381;DHT22;684;48.342;10.096;2023-03-14T16:34:49;9.20;12.70
1381;DHT22;684;48.342;10.096;2023-03-14T16:37:16;9.20;13.40
1381;DHT22;684;48.342;10.096;2023-03-14T16:39:46;9.20;13.30
1381;DHT22;684;48.342;10.096;2023-03-14T16:42:13;9.20;13.30
1381;DHT22;684;48.342;10.096;2023-03-14T16:44:40;9.10;13.60
1381;DHT22;684;48.342;10.096;2023-03-14T16:47:07;9.10;14.10
1381;DHT22;684;48.342;10.096;2023-03-14T16:49:34;9.10;14.10
1381;DHT22;684;48.342;10.096;2023-03-14T16:52:02;9.00;14.00
1381;DHT22;684;48.342;10.096;2023-03-14T16:54:29;9.00;14.50
1381;DHT22;684;48.342;10.096;2023-03-14T16:56:55;8.90;14.80
1381;DHT22;684;48.342;10.096;2023-03-14T16:59:22;8.90;15.10
1381;DHT22;684;48.342;10.096;2023-03-14T17:01:50;8.90;15.40
1381;DHT22;684;48.342;10.096;2023-03-14T17:04:17;8.90;15.60
1381;DHT22;684;48.342;10.096;2023-03-14T17:06:44;8.80;15.60
1381;DHT22;684;48.342;10.096;2023-03-14T17:09:12;8.80;16.00
1381;DHT22;684;48.342;10.096;2023-03-14T17:11:39;8.70;16.10
1381;DHT22;684;48.342;10.096;2023-03-14T17:14:05;8.70;16.30
1381;DHT22;684;48.342;10.096;2023-03-14T17:16:32;8.60;16.30
1381;DHT22;684;48.342;10.096;2023-03-14T17:18:59;8.60;16.60
1381;DHT22;684;48.342;10.096;2023-03-14T17:21:26;8.60;16.60
1381;DHT22;684;48.342;10.096;2023-03-14T17:23:52;8.60;16.20
1381;DHT22;684;48.342;10.096;2023-03-14T17:26:20;8.60;16.10
1381;DHT22;684;48.342;10.096;2023-03-14T17:28:47;8.60;16.40
1381;DHT22;684;48.342;10.096;2023-03-14T17:31:16;8.60;16.60
1381;DHT22;684;48.342;10.096;2023-03-14T17:33:43;8.60;16.70
1381;DHT22;684;48.342;10.096;2023-03-14T17:36:11;8.60;16.30
1381;DHT22;684;48.342;10.096;2023-03-14T17:38:38;8.60;15.70
1381;DHT22;684;48.342;10.096;2023-03-14T17:41:07;8.60;16.00
1381;DHT22;684;48.342;10.096;2023-03-14T17:43:36;8.60;16.10
1381;DHT22;684;48.342;10.096;2023-03-14T17:46:04;8.60;15.80
1381;DHT22;684;48.342;10.096;2023-03-14T17:48:35;8.70;15.60
1381;DHT22;684;48.342;10.096;2023-03-14T17:51:02;8.70;15.60
1381;DHT22;684;48.342;10.096;2023-03-14T17:53:29;8.70;15.80
1381;DHT22;684;48.342;10.096;2023-03-14T17:55:56;8.70;15.80
1381;DHT22;684;48.342;10.096;2023-03-14T17:58:23;8.70;15.70
1381;DHT22;684;48.342;10.096;2023-03-14T18:00:52;8.70;15.70
1381;DHT22;684;48.342;10.096;2023-03-14T18:03:19;8.70;15.60
1381;DHT22;684;48.342;10.096;2023-03-14T18:05:47;8.80;16.20
1381;DHT22;684;48.342;10.096;2023-03-14T18:08:14;8.80;15.90
1381;DHT22;684;48.342;10.096;2023-03-14T18:10:41;8.80;15.70
1381;DHT22;684;48.342;10.096;2023-03-14T18:13:08;8.80;15.70
1381;DHT22;684;48.342;10.096;2023-03-14T18:15:35;8.80;16.10
1381;DHT22;684;48.342;10.096;2023-03-14T18:18:03;8.90;16.80
1381;DHT22;684;48.342;10.096;2023-03-14T18:20:30;8.90;17.20
1381;DHT22;684;48.342;10.096;2023-03-14T18:22:56;8.90;17.20
1381;DHT22;684;48.342;10.096;2023-03-14T18:25:25;8.90;17.00
1381;DHT22;684;48.342;10.096;2023-03-14T18:27:51;8.90;17.00
1381;DHT22;684;48.342;10.096;2023-03-14T18:30:18;8.80;17.00
1381;DHT22;684;48.342;10.096;2023-03-14T18:32:45;8.80;17.00
1381;DHT22;684;48.342;10.096;2023-03-14T18:35:13;8.80;17.10
1381;DHT22;684;48.342;10.096;2023-03-14T18:37:40;8.80;17.40
1381;DHT22;684;48.342;10.096;2023-03-14T18:40:08;8.90;17.80
1381;DHT22;684;48.342;10.096;2023-03-14T18:42:38;8.90;18.30
1381;DHT22;684;48.342;10.096;2023-03-14T18:45:06;8.80;17.70
1381;DHT22;684;48.342;10.096;2023-03-14T18:47:32;8.80;17.80
1381;DHT22;684;48.342;10.096;2023-03-14T18:50:01;8.90;17.50
1381;DHT22;684;48.342;10.096;2023-03-14T18:52:29;8.90;17.60
1381;DHT22;684;48.342;10.096;2023-03-14T18:54:56;9.00;17.60
1381;DHT22;684;48.342;10.096;2023-03-14T18:57:23;9.00;17.40
1381;DHT22;684;48.342;10.096;2023-03-14T18:59:50;8.90;17.90
1381;DHT22;684;48.342;10.096;2023-03-14T19:02:21;8.90;19.10
1381;DHT22;684;48.342;10.096;2023-03-14T19:04:47;8.80;20.00
1381;DHT22;684;48.342;10.096;2023-03-14T19:07:15;8.70;20.40
1381;DHT22;684;48.342;10.096;2023-03-14T19:09:44;8.70;21.10
1381;DHT22;684;48.342;10.096;2023-03-14T19:12:10;8.60;21.50
1381;DHT22;684;48.342;10.096;2023-03-14T19:14:37;8.60;22.00
1381;DHT22;684;48.342;10.096;2023-03-14T19:17:04;8.60;22.00
1381;DHT22;684;48.342;10.096;2023-03-14T19:19:30;8.50;21.90
1381;DHT22;684;48.342;10.096;2023-03-14T19:21:57;8.40;21.90
1381;DHT22;684;48.342;10.096;2023-03-14T19:24:24;8.30;22.40